sensor_id;sensor_type;location;lat;lon;timestamp;pressure;altitude;pressure_sealevel;temperature;humidity
11124;BME280;5616;42.692;23.312;2022-12-10T00:01:43;94493.31;;;10.28;88.49
11124;BME280;5616;42.692;23.312;2022-12-10T00:04:11;94483.78;;;10.28;88.15
11124;BME280;5616;42.692;23.312;2022-12-10T00:06:39;94501.22;;;10.20;88.92
11124;BME280;5616;42.692;23.312;2022-12-10T00:09:07;94497.66;;;10.27;89.36
11124;BME280;5616;42.692;23.312;2022-12-10T00:11:37;94505.25;;;10.29;89.09
11124;BME280;5616;42.692;23.312;2022-12-10T00:14:06;94514.38;;;10.31;88.45
11124;BME280;5616;42.692;23.312;2022-12-10T00:16:33;94510.81;;;10.39;88.36
11124;BME280;5616;42.692;23.312;2022-12-10T00:19:01;94507.28;;;10.40;88.29
11124;BME280;5616;42.692;23.312;2022-12-10T00:21:31;94509.84;;;10.40;88.22
11124;BME280;5616;42.692;23.312;2022-12-10T00:23:59;94493.34;;;10.41;88.05
11124;BME280;5616;42.692;23.312;2022-12-10T00:26:27;94487.19;;;10.35;87.36
11124;BME280;5616;42.692;23.312;2022-12-10T00:28:55;94487.00;;;10.37;87.97
11124;BME280;5616;42.692;23.312;2022-12-10T00:31:25;94493.34;;;10.41;88.07
11124;BME280;5616;42.692;23.312;2022-12-10T00:33:53;94491.78;;;10.40;88.43
11124;BME280;5616;42.692;23.312;2022-12-10T00:36:22;94507.47;;;10.45;87.99
11124;BME280;5616;42.692;23.312;2022-12-10T00:38:50;94482.28;;;10.47;87.88
11124;BME280;5616;42.692;23.312;2022-12-10T00:41:17;94485.06;;;10.46;87.59
11124;BME280;5616;42.692;23.312;2022-12-10T00:43:44;94498.16;;;10.10;88.96
11124;BME280;5616;42.692;23.312;2022-12-10T00:46:12;94502.44;;;10.24;89.08
11124;BME280;5616;42.692;23.312;2022-12-10T00:48:41;94491.13;;;10.25;89.04
11124;BME280;5616;42.692;23.312;2022-12-10T00:51:09;94486.16;;;10.23;88.36
11124;BME280;5616;42.692;23.312;2022-12-10T00:53:38;94491.31;;;10.23;88.36
11124;BME280;5616;42.692;23.312;2022-12-10T00:56:06;94504.00;;;10.18;89.64
11124;BME280;5616;42.692;23.312;2022-12-10T00:58:35;94515.97;;;10.32;89.26
11124;BME280;5616;42.692;23.312;2022-12-10T01:01:10;94501.09;;;10.41;89.03
11124;BME280;5616;42.692;23.312;2022-12-10T01:03:38;94479.47;;;10.42;88.00
11124;BME280;5616;42.692;23.312;2022-12-10T01:06:11;94501.31;;;10.39;88.51
11124;BME280;5616;42.692;23.312;2022-12-10T01:08:40;94476.31;;;10.40;88.40
11124;BME280;5616;42.692;23.312;2022-12-10T01:11:08;94498.72;;;10.46;88.58
11124;BME280;5616;42.692;23.312;2022-12-10T01:13:35;94492.41;;;10.55;88.63
11124;BME280;5616;42.692;23.312;2022-12-10T01:16:03;94499.41;;;10.61;88.04
11124;BME280;5616;42.692;23.312;2022-12-10T01:18:30;94478.16;;;10.66;87.36
11124;BME280;5616;42.692;23.312;2022-12-10T01:21:00;94481.91;;;10.63;87.85
11124;BME280;5616;42.692;23.312;2022-12-10T01:23:31;94475.75;;;10.64;88.37
11124;BME280;5616;42.692;23.312;2022-12-10T01:26:00;94475.19;;;10.69;87.33
11124;BME280;5616;42.692;23.312;2022-12-10T01:28:29;94477.75;;;10.69;87.78
11124;BME280;5616;42.692;23.312;2022-12-10T01:31:00;94474.59;;;10.73;87.76
11124;BME280;5616;42.692;23.312;2022-12-10T01:33:27;94478.78;;;10.74;87.56
11124;BME280;5616;42.692;23.312;2022-12-10T01:35:53;94458.47;;;10.65;87.20
11124;BME280;5616;42.692;23.312;2022-12-10T01:38:20;94475.34;;;10.67;88.18
11124;BME280;5616;42.692;23.312;2022-12-10T01:40:49;94455.72;;;10.66;88.24
11124;BME280;5616;42.692;23.312;2022-12-10T01:43:15;94472.78;;;10.67;87.57
11124;BME280;5616;42.692;23.312;2022-12-10T01:45:42;94470.22;;;10.74;88.33
11124;BME280;5616;42.692;23.312;2022-12-10T01:48:09;94474.59;;;10.80;87.52
11124;BME280;5616;42.692;23.312;2022-12-10T01:50:37;94480.75;;;10.79;87.36
11124;BME280;5616;42.692;23.312;2022-12-10T01:53:04;94479.97;;;10.85;87.19
11124;BME280;5616;42.692;23.312;2022-12-10T01:55:40;94449.56;;;10.87;87.59
11124;BME280;5616;42.692;23.312;2022-12-10T01:58:09;94474.22;;;10.89;87.10
11124;BME280;5616;42.692;23.312;2022-12-10T02:00:46;94471.81;;;10.81;88.12
11124;BME280;5616;42.692;23.312;2022-12-10T02:03:27;94461.91;;;10.85;87.70
11124;BME280;5616;42.692;23.312;2022-12-10T02:06:02;94454.53;;;10.88;87.64
11124;BME280;5616;42.692;23.312;2022-12-10T02:08:37;94460.28;;;10.84;87.57
11124;BME280;5616;42.692;23.312;2022-12-10T02:11:14;94462.47;;;10.74;88.20
11124;BME280;5616;42.692;23.312;2022-12-10T02:13:50;94461.06;;;10.78;88.22
11124;BME280;5616;42.692;23.312;2022-12-10T02:16:26;94464.44;;;10.65;89.07
11124;BME280;5616;42.692;23.312;2022-12-10T02:18:59;94481.13;;;10.76;89.96
11124;BME280;5616;42.692;23.312;2022-12-10T02:21:31;94467.84;;;10.79;89.58
11124;BME280;5616;42.692;23.312;2022-12-10T02:24:02;94454.13;;;10.78;88.87
11124;BME280;5616;42.692;23.312;2022-12-10T02:26:37;94454.50;;;10.75;89.63
11124;BME280;5616;42.692;23.312;2022-12-10T02:29:11;94445.38;;;10.73;89.33
11124;BME280;5616;42.692;23.312;2022-12-10T02:31:41;94444.59;;;10.85;89.49
11124;BME280;5616;42.692;23.312;2022-12-10T02:34:10;94439.84;;;10.95;88.77
11124;BME280;5616;42.692;23.312;2022-12-10T02:36:41;94444.81;;;10.97;88.92
11124;BME280;5616;42.692;23.312;2022-12-10T02:39:13;94433.50;;;10.98;88.53
11124;BME280;5616;42.692;23.312;2022-12-10T02:41:52;94430.69;;;10.86;88.65
11124;BME280;5616;42.692;23.312;2022-12-10T02:44:23;94435.47;;;10.89;89.05
11124;BME280;5616;42.692;23.312;2022-12-10T02:46:53;94429.91;;;10.92;89.35
11124;BME280;5616;42.692;23.312;2022-12-10T02:49:26;94440.22;;;10.86;89.21
11124;BME280;5616;42.692;23.312;2022-12-10T02:51:53;94444.22;;;10.82;90.16
11124;BME280;5616;42.692;23.312;2022-12-10T02:54:39;94424.13;;;10.84;90.28
11124;BME280;5616;42.692;23.312;2022-12-10T02:57:17;94431.50;;;10.87;90.52
11124;BME280;5616;42.692;23.312;2022-12-10T02:59:59;94433.28;;;10.80;90.44
11124;BME280;5616;42.692;23.312;2022-12-10T03:02:40;94436.84;;;10.85;90.34
11124;BME280;5616;42.692;23.312;2022-12-10T03:05:15;94427.72;;;10.89;90.51
11124;BME280;5616;42.692;23.312;2022-12-10T03:07:46;94431.47;;;10.93;90.70
11124;BME280;5616;42.692;23.312;2022-12-10T03:10:20;94434.66;;;10.89;90.30
11124;BME280;5616;42.692;23.312;2022-12-10T03:12:50;94426.31;;;10.93;91.12
11124;BME280;5616;42.692;23.312;2022-12-10T03:15:21;94432.69;;;10.97;90.79
11124;BME280;5616;42.692;23.312;2022-12-10T03:17:50;94424.94;;;10.97;91.31
11124;BME280;5616;42.692;23.312;2022-12-10T03:20:20;94423.34;;;10.96;91.38
11124;BME280;5616;42.692;23.312;2022-12-10T03:22:48;94419.38;;;10.94;90.94
11124;BME280;5616;42.692;23.312;2022-12-10T03:25:23;94428.91;;;10.93;91.69
11124;BME280;5616;42.692;23.312;2022-12-10T03:27:53;94422.94;;;10.99;91.73
11124;BME280;5616;42.692;23.312;2022-12-10T03:30:22;94419.00;;;11.03;91.53
11124;BME280;5616;42.692;23.312;2022-12-10T03:32:49;94415.59;;;11.10;92.19
11124;BME280;5616;42.692;23.312;2022-12-10T03:35:17;94417.97;;;11.18;90.58
11124;BME280;5616;42.692;23.312;2022-12-10T03:37:45;94414.19;;;11.27;91.11
11124;BME280;5616;42.692;23.312;2022-12-10T03:40:15;94414.00;;;11.35;89.75
11124;BME280;5616;42.692;23.312;2022-12-10T03:42:44;94413.19;;;11.28;90.13
11124;BME280;5616;42.692;23.312;2022-12-10T03:45:11;94427.13;;;11.27;90.34
11124;BME280;5616;42.692;23.312;2022-12-10T03:47:39;94414.38;;;11.25;90.55
11124;BME280;5616;42.692;23.312;2022-12-10T03:50:07;94411.44;;;11.09;90.34
11124;BME280;5616;42.692;23.312;2022-12-10T03:52:34;94388.75;;;11.04;91.28
11124;BME280;5616;42.692;23.312;2022-12-10T03:55:02;94397.53;;;11.03;92.01
11124;BME280;5616;42.692;23.312;2022-12-10T03:57:29;94397.31;;;11.04;92.94
11124;BME280;5616;42.692;23.312;2022-12-10T03:59:56;94400.31;;;11.08;93.16
11124;BME280;5616;42.692;23.312;2022-12-10T04:02:23;94402.50;;;11.11;93.08
11124;BME280;5616;42.692;23.312;2022-12-10T04:04:51;94409.81;;;11.14;93.39
11124;BME280;5616;42.692;23.312;2022-12-10T04:07:18;94390.13;;;11.20;92.81
11124;BME280;5616;42.692;23.312;2022-12-10T04:09:45;94409.44;;;11.24;92.68
11124;BME280;5616;42.692;23.312;2022-12-10T04:12:11;94402.66;;;11.23;93.52
11124;BME280;5616;42.692;23.312;2022-12-10T04:14:39;94400.47;;;11.26;93.51
11124;BME280;5616;42.692;23.312;2022-12-10T04:17:23;94418.75;;;11.25;92.89
11124;BME280;5616;42.692;23.312;2022-12-10T04:19:52;94417.75;;;11.26;93.62
11124;BME280;5616;42.692;23.312;2022-12-10T04:22:18;94407.25;;;11.27;93.07
11124;BME280;5616;42.692;23.312;2022-12-10T04:25:03;94401.09;;;11.22;93.28
11124;BME280;5616;42.692;23.312;2022-12-10T04:27:47;94410.81;;;11.20;93.13
11124;BME280;5616;42.692;23.312;2022-12-10T04:30:14;94408.84;;;11.22;93.77
11124;BME280;5616;42.692;23.312;2022-12-10T04:32:40;94420.56;;;11.18;94.17
11124;BME280;5616;42.692;23.312;2022-12-10T04:35:09;94428.13;;;11.19;94.77
11124;BME280;5616;42.692;23.312;2022-12-10T04:37:36;94419.56;;;11.19;94.22
11124;BME280;5616;42.692;23.312;2022-12-10T04:40:04;94414.59;;;11.11;94.80
11124;BME280;5616;42.692;23.312;2022-12-10T04:42:31;94398.50;;;11.02;96.37
11124;BME280;5616;42.692;23.312;2022-12-10T04:44:58;94404.06;;;10.73;98.60
11124;BME280;5616;42.692;23.312;2022-12-10T04:47:25;94412.84;;;10.85;99.12
11124;BME280;5616;42.692;23.312;2022-12-10T04:49:52;94419.59;;;10.92;98.97
11124;BME280;5616;42.692;23.312;2022-12-10T04:52:20;94424.56;;;11.00;98.73
11124;BME280;5616;42.692;23.312;2022-12-10T04:54:47;94420.38;;;10.99;98.51
11124;BME280;5616;42.692;23.312;2022-12-10T04:57:14;94413.00;;;11.10;98.76
11124;BME280;5616;42.692;23.312;2022-12-10T04:59:40;94404.66;;;11.01;98.18
11124;BME280;5616;42.692;23.312;2022-12-10T05:02:07;94418.97;;;11.10;98.25
11124;BME280;5616;42.692;23.312;2022-12-10T05:04:34;94421.97;;;11.14;97.98
11124;BME280;5616;42.692;23.312;2022-12-10T05:07:01;94400.50;;;11.13;97.47
11124;BME280;5616;42.692;23.312;2022-12-10T05:09:29;94424.13;;;11.23;97.04
11124;BME280;5616;42.692;23.312;2022-12-10T05:11:56;94421.56;;;11.10;98.43
11124;BME280;5616;42.692;23.312;2022-12-10T05:14:23;94419.59;;;11.05;98.47
11124;BME280;5616;42.692;23.312;2022-12-10T05:16:50;94402.69;;;10.96;98.70
11124;BME280;5616;42.692;23.312;2022-12-10T05:19:19;94401.88;;;11.02;98.61
11124;BME280;5616;42.692;23.312;2022-12-10T05:21:47;94401.69;;;11.11;98.94
11124;BME280;5616;42.692;23.312;2022-12-10T05:24:33;94411.00;;;11.12;99.06
11124;BME280;5616;42.692;23.312;2022-12-10T05:27:00;94390.97;;;11.14;98.97
11124;BME280;5616;42.692;23.312;2022-12-10T05:29:27;94382.59;;;11.12;98.88
11124;BME280;5616;42.692;23.312;2022-12-10T05:31:54;94390.97;;;11.14;99.08
11124;BME280;5616;42.692;23.312;2022-12-10T05:34:21;94397.31;;;11.04;100.00
11124;BME280;5616;42.692;23.312;2022-12-10T05:36:48;94407.66;;;11.04;100.00
11124;BME280;5616;42.692;23.312;2022-12-10T05:39:14;94412.22;;;11.09;100.00
11124;BME280;5616;42.692;23.312;2022-12-10T05:41:43;94408.44;;;11.12;100.00
11124;BME280;5616;42.692;23.312;2022-12-10T05:44:11;94418.38;;;11.15;100.00
11124;BME280;5616;42.692;23.312;2022-12-10T05:46:38;94419.97;;;11.16;100.00
11124;BME280;5616;42.692;23.312;2022-12-10T05:49:06;94422.16;;;11.19;100.00
11124;BME280;5616;42.692;23.312;2022-12-10T05:51:34;94420.75;;;11.23;100.00
11124;BME280;5616;42.692;23.312;2022-12-10T05:54:04;94420.34;;;11.26;100.00
11124;BME280;5616;42.692;23.312;2022-12-10T05:56:31;94425.31;;;11.21;100.00
11124;BME280;5616;42.692;23.312;2022-12-10T05:59:00;94426.09;;;11.28;100.00
11124;BME280;5616;42.692;23.312;2022-12-10T06:01:29;94406.03;;;11.30;100.00
11124;BME280;5616;42.692;23.312;2022-12-10T06:03:57;94422.94;;;11.32;100.00
11124;BME280;5616;42.692;23.312;2022-12-10T06:06:27;94424.53;;;11.27;100.00
11124;BME280;5616;42.692;23.312;2022-12-10T06:08:55;94426.28;;;11.33;100.00
11124;BME280;5616;42.692;23.312;2022-12-10T06:11:22;94433.47;;;11.37;100.00
11124;BME280;5616;42.692;23.312;2022-12-10T06:13:49;94440.81;;;11.40;100.00
11124;BME280;5616;42.692;23.312;2022-12-10T06:16:17;94428.09;;;11.32;100.00
11124;BME280;5616;42.692;23.312;2022-12-10T06:18:44;94429.06;;;11.38;100.00
11124;BME280;5616;42.692;23.312;2022-12-10T06:21:13;94432.25;;;11.46;100.00
11124;BME280;5616;42.692;23.312;2022-12-10T06:23:41;94426.09;;;11.47;99.92
11124;BME280;5616;42.692;23.312;2022-12-10T06:26:09;94431.25;;;11.47;100.00
11124;BME280;5616;42.692;23.312;2022-12-10T06:28:37;94420.31;;;11.52;99.85
11124;BME280;5616;42.692;23.312;2022-12-10T06:31:05;94410.94;;;11.57;99.43
11124;BME280;5616;42.692;23.312;2022-12-10T06:33:33;94401.19;;;11.59;99.35
11124;BME280;5616;42.692;23.312;2022-12-10T06:36:03;94399.41;;;11.60;99.41
11124;BME280;5616;42.692;23.312;2022-12-10T06:38:30;94387.69;;;11.57;99.06
11124;BME280;5616;42.692;23.312;2022-12-10T06:40:56;94391.06;;;11.58;99.85
11124;BME280;5616;42.692;23.312;2022-12-10T06:43:23;94399.63;;;11.58;100.00
11124;BME280;5616;42.692;23.312;2022-12-10T06:45:50;94406.75;;;11.63;100.00
11124;BME280;5616;42.692;23.312;2022-12-10T06:48:17;94416.69;;;11.59;100.00
11124;BME280;5616;42.692;23.312;2022-12-10T06:50:45;94418.09;;;11.62;100.00
11124;BME280;5616;42.692;23.312;2022-12-10T06:53:12;94421.50;;;11.69;100.00
11124;BME280;5616;42.692;23.312;2022-12-10T06:55:39;94432.84;;;11.75;100.00
11124;BME280;5616;42.692;23.312;2022-12-10T06:58:06;94453.88;;;11.78;100.00
11124;BME280;5616;42.692;23.312;2022-12-10T07:00:32;94455.09;;;11.82;100.00
11124;BME280;5616;42.692;23.312;2022-12-10T07:02:59;94439.59;;;11.69;99.31
11124;BME280;5616;42.692;23.312;2022-12-10T07:05:26;94430.84;;;11.57;99.94
11124;BME280;5616;42.692;23.312;2022-12-10T07:07:54;94436.19;;;11.62;100.00
11124;BME280;5616;42.692;23.312;2022-12-10T07:10:21;94444.56;;;11.71;100.00
11124;BME280;5616;42.692;23.312;2022-12-10T07:12:48;94438.94;;;11.80;100.00
11124;BME280;5616;42.692;23.312;2022-12-10T07:15:15;94437.38;;;11.79;99.55
11124;BME280;5616;42.692;23.312;2022-12-10T07:17:42;94428.59;;;11.80;99.02
11124;BME280;5616;42.692;23.312;2022-12-10T07:20:09;94430.03;;;11.76;98.91
11124;BME280;5616;42.692;23.312;2022-12-10T07:22:37;94411.94;;;11.70;98.98
11124;BME280;5616;42.692;23.312;2022-12-10T07:25:06;94413.09;;;11.67;100.00
11124;BME280;5616;42.692;23.312;2022-12-10T07:27:33;94411.91;;;11.76;99.54
11124;BME280;5616;42.692;23.312;2022-12-10T07:29:59;94396.63;;;11.75;98.07
11124;BME280;5616;42.692;23.312;2022-12-10T07:32:26;94401.19;;;11.66;98.32
11124;BME280;5616;42.692;23.312;2022-12-10T07:34:53;94402.38;;;11.77;98.82
11124;BME280;5616;42.692;23.312;2022-12-10T07:37:20;94408.50;;;11.89;99.82
11124;BME280;5616;42.692;23.312;2022-12-10T07:39:47;94400.09;;;12.00;99.56
11124;BME280;5616;42.692;23.312;2022-12-10T07:42:15;94397.91;;;12.03;99.26
11124;BME280;5616;42.692;23.312;2022-12-10T07:44:42;94402.06;;;12.04;97.85
11124;BME280;5616;42.692;23.312;2022-12-10T07:47:09;94407.03;;;12.06;98.70
11124;BME280;5616;42.692;23.312;2022-12-10T07:49:35;94412.16;;;12.12;99.62
11124;BME280;5616;42.692;23.312;2022-12-10T07:52:02;94413.72;;;12.26;99.28
11124;BME280;5616;42.692;23.312;2022-12-10T07:54:29;94408.69;;;12.32;97.84
11124;BME280;5616;42.692;23.312;2022-12-10T07:56:56;94402.06;;;12.42;96.72
11124;BME280;5616;42.692;23.312;2022-12-10T07:59:24;94401.59;;;12.52;95.87
11124;BME280;5616;42.692;23.312;2022-12-10T08:01:51;94385.47;;;12.56;96.19
11124;BME280;5616;42.692;23.312;2022-12-10T08:04:18;94384.59;;;12.62;96.62
11124;BME280;5616;42.692;23.312;2022-12-10T08:06:45;94390.19;;;12.59;96.68
11124;BME280;5616;42.692;23.312;2022-12-10T08:09:13;94378.84;;;12.60;96.76
11124;BME280;5616;42.692;23.312;2022-12-10T08:11:39;94379.22;;;12.64;96.65
11124;BME280;5616;42.692;23.312;2022-12-10T08:14:06;94367.66;;;12.66;95.90
11124;BME280;5616;42.692;23.312;2022-12-10T08:16:34;94370.53;;;12.52;95.29
11124;BME280;5616;42.692;23.312;2022-12-10T08:19:01;94377.47;;;12.26;96.99
11124;BME280;5616;42.692;23.312;2022-12-10T08:21:30;94384.34;;;12.39;96.78
11124;BME280;5616;42.692;23.312;2022-12-10T08:23:57;94383.78;;;12.37;95.53
11124;BME280;5616;42.692;23.312;2022-12-10T08:26:26;94373.78;;;12.41;95.45
11124;BME280;5616;42.692;23.312;2022-12-10T08:28:53;94377.75;;;12.43;94.83
11124;BME280;5616;42.692;23.312;2022-12-10T08:31:22;94370.13;;;12.23;95.23
11124;BME280;5616;42.692;23.312;2022-12-10T08:33:51;94373.09;;;12.27;96.29
11124;BME280;5616;42.692;23.312;2022-12-10T08:36:18;94376.81;;;12.38;97.09
11124;BME280;5616;42.692;23.312;2022-12-10T08:38:45;94358.72;;;12.31;95.50
11124;BME280;5616;42.692;23.312;2022-12-10T08:41:14;94353.16;;;12.27;96.55
11124;BME280;5616;42.692;23.312;2022-12-10T08:43:42;94350.94;;;12.31;96.51
11124;BME280;5616;42.692;23.312;2022-12-10T08:46:09;94364.19;;;12.48;96.20
11124;BME280;5616;42.692;23.312;2022-12-10T08:48:36;94355.09;;;12.39;97.41
11124;BME280;5616;42.692;23.312;2022-12-10T08:51:05;94352.66;;;12.44;97.40
11124;BME280;5616;42.692;23.312;2022-12-10T08:53:32;94343.16;;;12.62;96.31
11124;BME280;5616;42.692;23.312;2022-12-10T08:55:59;94351.59;;;12.82;95.15
11124;BME280;5616;42.692;23.312;2022-12-10T08:58:26;94343.63;;;12.77;95.02
11124;BME280;5616;42.692;23.312;2022-12-10T09:00:53;94347.50;;;12.93;95.06
11124;BME280;5616;42.692;23.312;2022-12-10T09:03:20;94345.19;;;13.10;94.13
11124;BME280;5616;42.692;23.312;2022-12-10T09:05:47;94334.75;;;13.16;92.47
11124;BME280;5616;42.692;23.312;2022-12-10T09:08:16;94343.13;;;13.18;92.62
11124;BME280;5616;42.692;23.312;2022-12-10T09:10:42;94337.50;;;13.21;93.36
11124;BME280;5616;42.692;23.312;2022-12-10T09:13:09;94325.69;;;13.25;93.50
11124;BME280;5616;42.692;23.312;2022-12-10T09:15:36;94329.16;;;13.19;92.79
11124;BME280;5616;42.692;23.312;2022-12-10T09:18:03;94330.81;;;13.14;92.95
11124;BME280;5616;42.692;23.312;2022-12-10T09:20:30;94332.03;;;13.11;93.04
11124;BME280;5616;42.692;23.312;2022-12-10T09:22:57;94333.03;;;13.10;93.07
11124;BME280;5616;42.692;23.312;2022-12-10T09:25:25;94324.91;;;13.00;94.36
11124;BME280;5616;42.692;23.312;2022-12-10T09:27:52;94310.06;;;13.14;94.22
11124;BME280;5616;42.692;23.312;2022-12-10T09:30:19;94306.53;;;13.26;93.10
11124;BME280;5616;42.692;23.312;2022-12-10T09:32:46;94312.44;;;13.33;92.92
11124;BME280;5616;42.692;23.312;2022-12-10T09:35:13;94309.03;;;13.33;92.17
11124;BME280;5616;42.692;23.312;2022-12-10T09:37:39;94299.59;;;13.57;92.50
11124;BME280;5616;42.692;23.312;2022-12-10T09:40:07;94293.94;;;13.78;92.01
11124;BME280;5616;42.692;23.312;2022-12-10T09:42:41;94292.66;;;13.87;90.97
11124;BME280;5616;42.692;23.312;2022-12-10T09:45:18;94277.88;;;13.87;91.42
11124;BME280;5616;42.692;23.312;2022-12-10T09:47:54;94269.38;;;13.80;90.77
11124;BME280;5616;42.692;23.312;2022-12-10T09:50:29;94280.16;;;13.95;90.56
11124;BME280;5616;42.692;23.312;2022-12-10T09:52:58;94276.28;;;14.16;89.77
11124;BME280;5616;42.692;23.312;2022-12-10T09:55:32;94271.69;;;14.30;88.66
11124;BME280;5616;42.692;23.312;2022-12-10T09:58:04;94270.88;;;14.29;88.33
11124;BME280;5616;42.692;23.312;2022-12-10T10:00:35;94276.91;;;14.41;87.98
11124;BME280;5616;42.692;23.312;2022-12-10T10:03:03;94276.59;;;14.49;88.09
11124;BME280;5616;42.692;23.312;2022-12-10T10:05:35;94267.47;;;14.58;87.65
11124;BME280;5616;42.692;23.312;2022-12-10T10:08:06;94260.47;;;14.59;86.77
11124;BME280;5616;42.692;23.312;2022-12-10T10:10:39;94260.91;;;14.67;86.93
11124;BME280;5616;42.692;23.312;2022-12-10T10:13:16;94246.78;;;14.63;85.79
11124;BME280;5616;42.692;23.312;2022-12-10T10:15:45;94266.81;;;14.75;86.55
11124;BME280;5616;42.692;23.312;2022-12-10T10:18:24;94270.75;;;14.77;86.97
11124;BME280;5616;42.692;23.312;2022-12-10T10:20:53;94259.66;;;14.82;86.80
11124;BME280;5616;42.692;23.312;2022-12-10T10:23:20;94248.94;;;14.90;86.34
11124;BME280;5616;42.692;23.312;2022-12-10T10:25:47;94233.09;;;14.91;85.28
11124;BME280;5616;42.692;23.312;2022-12-10T10:28:19;94236.81;;;15.07;85.30
11124;BME280;5616;42.692;23.312;2022-12-10T10:30:46;94222.81;;;15.08;84.56
11124;BME280;5616;42.692;23.312;2022-12-10T10:33:15;94219.69;;;15.22;83.93
11124;BME280;5616;42.692;23.312;2022-12-10T10:35:44;94210.72;;;15.42;83.26
11124;BME280;5616;42.692;23.312;2022-12-10T10:38:17;94201.78;;;15.49;82.50
11124;BME280;5616;42.692;23.312;2022-12-10T10:40:49;94207.34;;;15.53;81.73
11124;BME280;5616;42.692;23.312;2022-12-10T10:43:22;94214.44;;;15.57;82.29
11124;BME280;5616;42.692;23.312;2022-12-10T10:45:52;94213.84;;;15.67;82.30
11124;BME280;5616;42.692;23.312;2022-12-10T10:48:22;94220.03;;;15.77;81.59
11124;BME280;5616;42.692;23.312;2022-12-10T10:50:52;94216.38;;;15.78;80.61
11124;BME280;5616;42.692;23.312;2022-12-10T10:53:25;94216.47;;;15.83;79.45
11124;BME280;5616;42.692;23.312;2022-12-10T10:55:54;94204.59;;;15.87;79.09
11124;BME280;5616;42.692;23.312;2022-12-10T10:58:24;94201.31;;;15.80;79.34
11124;BME280;5616;42.692;23.312;2022-12-10T11:00:56;94179.56;;;15.86;78.57
11124;BME280;5616;42.692;23.312;2022-12-10T11:03:24;94188.34;;;15.97;79.62
11124;BME280;5616;42.692;23.312;2022-12-10T11:05:51;94188.50;;;16.07;78.94
11124;BME280;5616;42.692;23.312;2022-12-10T11:08:18;94196.09;;;16.09;79.26
11124;BME280;5616;42.692;23.312;2022-12-10T11:10:49;94185.34;;;16.05;79.64
11124;BME280;5616;42.692;23.312;2022-12-10T11:13:24;94178.84;;;15.91;80.26
11124;BME280;5616;42.692;23.312;2022-12-10T11:15:56;94167.59;;;15.85;81.09
11124;BME280;5616;42.692;23.312;2022-12-10T11:18:26;94142.78;;;15.83;81.24
11124;BME280;5616;42.692;23.312;2022-12-10T11:21:03;94149.25;;;15.80;81.25
11124;BME280;5616;42.692;23.312;2022-12-10T11:23:31;94145.16;;;15.84;81.18
11124;BME280;5616;42.692;23.312;2022-12-10T11:26:21;94141.56;;;15.85;81.18
11124;BME280;5616;42.692;23.312;2022-12-10T11:29:01;94137.34;;;15.84;81.02
11124;BME280;5616;42.692;23.312;2022-12-10T11:31:37;94127.16;;;15.83;81.64
11124;BME280;5616;42.692;23.312;2022-12-10T11:34:15;94120.81;;;15.90;81.49
11124;BME280;5616;42.692;23.312;2022-12-10T11:36:51;94129.38;;;15.91;81.43
11124;BME280;5616;42.692;23.312;2022-12-10T11:39:38;94134.59;;;15.91;81.87
11124;BME280;5616;42.692;23.312;2022-12-10T11:42:19;94133.03;;;15.90;81.86
11124;BME280;5616;42.692;23.312;2022-12-10T11:44:57;94135.25;;;15.98;81.44
11124;BME280;5616;42.692;23.312;2022-12-10T11:47:43;94136.88;;;16.04;81.58
11124;BME280;5616;42.692;23.312;2022-12-10T11:50:20;94133.13;;;16.12;80.79
11124;BME280;5616;42.692;23.312;2022-12-10T11:53:00;94132.31;;;16.11;79.68
11124;BME280;5616;42.692;23.312;2022-12-10T11:55:36;94115.66;;;16.12;79.43
11124;BME280;5616;42.692;23.312;2022-12-10T11:58:19;94123.38;;;16.07;80.14
11124;BME280;5616;42.692;23.312;2022-12-10T12:00:52;94100.94;;;16.01;80.64
11124;BME280;5616;42.692;23.312;2022-12-10T12:03:55;94103.69;;;16.11;79.92
11124;BME280;5616;42.692;23.312;2022-12-10T12:06:45;94116.44;;;16.13;79.75
11124;BME280;5616;42.692;23.312;2022-12-10T12:09:27;94116.78;;;16.16;79.99
11124;BME280;5616;42.692;23.312;2022-12-10T12:12:06;94102.41;;;16.14;80.36
11124;BME280;5616;42.692;23.312;2022-12-10T12:14:41;94099.72;;;16.09;80.15
11124;BME280;5616;42.692;23.312;2022-12-10T12:17:16;94079.13;;;16.07;79.91
11124;BME280;5616;42.692;23.312;2022-12-10T12:19:47;94083.72;;;16.00;79.54
11124;BME280;5616;42.692;23.312;2022-12-10T12:22:23;94078.50;;;15.83;79.93
11124;BME280;5616;42.692;23.312;2022-12-10T12:24:52;94077.81;;;15.71;80.39
11124;BME280;5616;42.692;23.312;2022-12-10T12:27:24;94071.66;;;15.61;80.80
11124;BME280;5616;42.692;23.312;2022-12-10T12:30:00;94090.94;;;15.65;81.59
11124;BME280;5616;42.692;23.312;2022-12-10T12:32:36;94075.34;;;15.65;81.95
11124;BME280;5616;42.692;23.312;2022-12-10T12:35:10;94069.91;;;15.66;81.57
11124;BME280;5616;42.692;23.312;2022-12-10T12:37:42;94051.44;;;15.68;81.88
11124;BME280;5616;42.692;23.312;2022-12-10T12:40:15;94042.84;;;15.67;81.55
11124;BME280;5616;42.692;23.312;2022-12-10T12:42:53;94041.38;;;15.71;81.71
11124;BME280;5616;42.692;23.312;2022-12-10T12:45:28;94043.34;;;15.64;81.84
11124;BME280;5616;42.692;23.312;2022-12-10T12:48:02;94030.88;;;15.66;82.07
11124;BME280;5616;42.692;23.312;2022-12-10T12:50:40;94033.00;;;15.69;81.79
11124;BME280;5616;42.692;23.312;2022-12-10T12:53:10;94040.03;;;15.69;82.27
11124;BME280;5616;42.692;23.312;2022-12-10T12:55:44;94042.09;;;15.67;82.33
11124;BME280;5616;42.692;23.312;2022-12-10T12:58:26;94032.69;;;15.66;82.74
11124;BME280;5616;42.692;23.312;2022-12-10T13:01:00;94036.56;;;15.63;82.00
11124;BME280;5616;42.692;23.312;2022-12-10T13:03:36;94023.22;;;15.60;82.47
11124;BME280;5616;42.692;23.312;2022-12-10T13:06:16;94025.75;;;15.55;82.28
11124;BME280;5616;42.692;23.312;2022-12-10T13:08:45;94010.59;;;15.52;82.50
11124;BME280;5616;42.692;23.312;2022-12-10T13:11:29;94004.06;;;15.49;82.43
11124;BME280;5616;42.692;23.312;2022-12-10T13:14:31;94019.13;;;15.47;82.08
11124;BME280;5616;42.692;23.312;2022-12-10T13:17:05;94021.63;;;15.42;82.18